createdAt,value
2022-10-04T00:01:17.287Z,359.58
2022-10-04T00:04:01.150Z,359.55
2022-10-04T00:06:28.080Z,345.83
2022-10-04T00:09:05.467Z,356.53
2022-10-04T00:11:37.540Z,357.13
2022-10-04T00:14:14.425Z,356.80
2022-10-04T00:16:43.992Z,345.47
2022-10-04T00:19:19.671Z,346.08
2022-10-04T00:21:58.177Z,351.88
2022-10-04T00:24:26.261Z,356.42
2022-10-04T00:26:52.837Z,353.23
2022-10-04T00:29:37.439Z,353.98
2022-10-04T00:32:09.821Z,358.67
2022-10-04T00:34:36.360Z,340.67
2022-10-04T00:37:13.105Z,344.75
2022-10-04T00:39:45.592Z,345.08
2022-10-04T00:42:27.109Z,343.58
2022-10-04T00:45:07.623Z,339.85
2022-10-04T00:47:46.053Z,333.80
2022-10-04T00:50:26.100Z,332.30
2022-10-04T00:52:56.884Z,333.43
2022-10-04T00:55:33.466Z,339.13
2022-10-04T00:58:02.985Z,337.13
2022-10-04T01:00:33.324Z,343.08
2022-10-04T01:03:14.002Z,355.15
2022-10-04T01:05:49.994Z,352.05
2022-10-04T01:08:24.556Z,345.20
2022-10-04T01:10:56.782Z,350.05
2022-10-04T01:13:31.112Z,342.58
2022-10-04T01:16:03.776Z,349.85
2022-10-04T01:18:33.497Z,352.17
2022-10-04T01:21:09.141Z,353.90
2022-10-04T01:23:49.480Z,357.45
2022-10-04T01:26:34.439Z,351.95
2022-10-04T01:29:08.056Z,340.90
2022-10-04T01:31:38.107Z,347.02
2022-10-04T01:34:06.334Z,343.67
2022-10-04T01:36:34.309Z,332.70
2022-10-04T01:39:01.279Z,327.13
2022-10-04T01:41:40.571Z,333.55
2022-10-04T01:44:11.229Z,330.13
2022-10-04T01:46:40.133Z,330.00
2022-10-04T01:49:12.593Z,329.65
2022-10-04T01:51:49.841Z,338.17
2022-10-04T01:54:21.496Z,337.98
2022-10-04T01:57:00.451Z,328.55
2022-10-04T01:59:33.369Z,332.02
2022-10-04T02:02:06.535Z,330.88
2022-10-04T02:04:38.660Z,337.75
2022-10-04T02:07:13.566Z,331.10
2022-10-04T02:09:45.233Z,333.83
2022-10-04T02:12:16.933Z,336.25
2022-10-04T02:14:52.580Z,328.95
2022-10-04T02:17:27.718Z,320.38
2022-10-04T02:19:55.145Z,326.23
2022-10-04T02:22:23.650Z,324.47
2022-10-04T02:24:50.618Z,325.45
2022-10-04T02:27:17.494Z,327.63
2022-10-04T02:29:44.207Z,324.98
2022-10-04T02:32:32.406Z,329.00
2022-10-04T02:34:59.174Z,324.55
2022-10-04T02:37:28.138Z,328.48
2022-10-04T02:40:40.074Z,325.63
2022-10-04T02:43:15.076Z,323.45
2022-10-04T02:46:12.717Z,322.10
2022-10-04T02:48:43.982Z,326.25
2022-10-04T02:51:19.817Z,325.83
2022-10-04T02:53:52.970Z,325.75
2022-10-04T02:56:20.836Z,331.17
2022-10-04T02:58:47.558Z,331.80
2022-10-04T03:01:26.672Z,334.77
2022-10-04T03:03:55.733Z,340.55
2022-10-04T03:06:28.185Z,336.55
2022-10-04T03:09:05.974Z,341.65
2022-10-04T03:11:40.802Z,342.50
2022-10-04T03:14:14.849Z,345.58
2022-10-04T03:16:44.613Z,334.80
2022-10-04T03:19:13.673Z,340.77
2022-10-04T03:21:43.415Z,331.77
2022-10-04T03:24:16.838Z,341.63
2022-10-04T03:26:46.871Z,330.75
2022-10-04T03:29:16.335Z,326.13
2022-10-04T03:31:46.567Z,339.48
2022-10-04T03:34:17.283Z,331.17
2022-10-04T03:36:45.760Z,334.15
2022-10-04T03:39:18.344Z,329.60
2022-10-04T03:41:45.091Z,332.38
2022-10-04T03:44:16.922Z,340.55
2022-10-04T03:46:45.330Z,337.52
2022-10-04T03:49:17.895Z,332.20
2022-10-04T03:51:49.093Z,333.20
2022-10-04T03:54:23.573Z,341.90
2022-10-04T03:56:52.961Z,324.98
2022-10-04T03:59:20.056Z,337.70
2022-10-04T04:02:03.611Z,337.13
2022-10-04T04:04:42.101Z,326.10
2022-10-04T04:07:18.807Z,328.80
2022-10-04T04:09:52.437Z,319.13
2022-10-04T04:12:39.327Z,320.45
2022-10-04T04:15:11.946Z,325.92
2022-10-04T04:17:41.688Z,325.73
2022-10-04T04:20:41.221Z,318.10
2022-10-04T04:23:11.111Z,310.27
2022-10-04T04:25:42.000Z,316.20
2022-10-04T04:28:20.381Z,314.08
2022-10-04T04:30:50.100Z,313.08
2022-10-04T04:33:41.495Z,312.30
2022-10-04T04:36:11.968Z,298.90
2022-10-04T04:38:58.572Z,300.88
2022-10-04T04:41:27.989Z,309.17
2022-10-04T04:43:54.997Z,306.23
2022-10-04T04:46:27.537Z,301.90
2022-10-04T04:49:04.314Z,310.47
2022-10-04T04:51:33.052Z,319.15
2022-10-04T04:54:03.530Z,311.38
2022-10-04T04:56:30.760Z,312.80
2022-10-04T04:59:01.826Z,311.40
2022-10-04T05:01:44.818Z,303.80
2022-10-04T05:04:12.638Z,299.42
2022-10-04T05:06:45.207Z,295.03
2022-10-04T05:09:25.992Z,309.48
2022-10-04T05:11:56.781Z,314.90
2022-10-04T05:14:23.427Z,317.25
2022-10-04T05:16:52.415Z,299.08
2022-10-04T05:19:24.901Z,292.38
2022-10-04T05:21:56.731Z,301.77
2022-10-04T05:24:28.011Z,285.48
2022-10-04T05:26:58.636Z,311.48
2022-10-04T05:29:28.505Z,304.80
2022-10-04T05:32:45.396Z,295.15
2022-10-04T05:35:17.174Z,314.58
2022-10-04T05:38:00.625Z,299.65
2022-10-04T05:40:39.497Z,300.10
2022-10-04T05:43:29.129Z,298.98
2022-10-04T05:46:18.580Z,293.48
2022-10-04T05:48:53.000Z,300.30
2022-10-04T05:51:23.073Z,303.95
2022-10-04T05:53:50.520Z,302.30
2022-10-04T05:56:42.349Z,300.08
2022-10-04T05:59:30.557Z,299.88
2022-10-04T06:02:12.237Z,302.58
2022-10-04T06:05:12.201Z,298.67
2022-10-04T06:07:59.692Z,309.05
2022-10-04T06:10:32.200Z,298.30
2022-10-04T06:13:36.725Z,292.57
2022-10-04T06:16:06.306Z,276.45
2022-10-04T06:19:06.854Z,286.50
2022-10-04T06:21:56.947Z,294.75
2022-10-04T06:24:27.904Z,281.23
2022-10-04T06:27:19.225Z,279.27
2022-10-04T06:30:03.521Z,275.98
2022-10-04T06:32:49.145Z,274.80
2022-10-04T06:35:42.541Z,274.73
2022-10-04T06:38:23.378Z,278.70
2022-10-04T06:41:46.837Z,271.90
2022-10-04T06:44:37.109Z,284.27
2022-10-04T06:47:11.312Z,290.55
2022-10-04T06:50:12.245Z,302.55
2022-10-04T06:52:58.552Z,319.60
2022-10-04T06:55:34.184Z,287.25
2022-10-04T06:58:18.377Z,282.33
2022-10-04T07:00:54.300Z,291.15
2022-10-04T07:03:27.877Z,314.92
2022-10-04T07:06:04.887Z,281.58
2022-10-04T07:08:59.585Z,283.98
2022-10-04T07:11:32.754Z,279.88
2022-10-04T07:14:02.912Z,286.10
2022-10-04T07:16:56.014Z,284.95
2022-10-04T07:19:39.975Z,285.25
2022-10-04T07:22:06.561Z,276.88
2022-10-04T07:24:51.347Z,268.70
2022-10-04T07:27:24.201Z,280.85
2022-10-04T07:30:06.085Z,285.60
2022-10-04T07:32:38.833Z,294.02
2022-10-04T07:35:14.410Z,292.50
2022-10-04T07:37:58.636Z,312.65
2022-10-04T07:40:31.460Z,314.45
2022-10-04T07:43:04.278Z,293.80
2022-10-04T07:45:34.473Z,303.17
2022-10-04T07:48:23.262Z,308.88
2022-10-04T07:51:09.440Z,304.48
2022-10-04T07:54:14.780Z,302.70
2022-10-04T07:56:55.712Z,305.58
2022-10-04T07:59:37.297Z,310.40
2022-10-04T08:02:31.834Z,302.15
2022-10-04T08:05:20.590Z,304.20
2022-10-04T08:07:56.667Z,342.85
2022-10-04T08:10:23.977Z,317.57
2022-10-04T08:12:53.834Z,314.80
2022-10-04T08:15:37.426Z,310.55
2022-10-04T08:18:19.639Z,315.38
2022-10-04T08:21:04.385Z,303.25
2022-10-04T08:23:40.983Z,312.08
2022-10-04T08:26:15.947Z,316.15
2022-10-04T08:29:18.125Z,310.95
2022-10-04T08:32:23.264Z,296.23
2022-10-04T08:35:16.452Z,312.03
2022-10-04T08:38:06.650Z,290.95
2022-10-04T08:40:50.004Z,302.23
2022-10-04T08:43:56.766Z,291.58
2022-10-04T08:46:40.960Z,311.10
2022-10-04T08:50:05.337Z,290.15
2022-10-04T08:53:04.584Z,288.88
2022-10-04T08:55:48.122Z,306.33
2022-10-04T08:58:48.175Z,318.33
2022-10-04T09:01:54.600Z,313.70
2022-10-04T09:04:50.921Z,315.13
2022-10-04T09:07:46.381Z,314.73
2022-10-04T09:10:36.541Z,303.70
2022-10-04T09:13:31.289Z,294.13
2022-10-04T09:16:47.392Z,291.15
2022-10-04T09:19:53.533Z,279.05
2022-10-04T09:23:05.557Z,260.40
2022-10-04T09:25:59.779Z,266.75
2022-10-04T09:28:45.064Z,255.90
2022-10-04T09:32:00.943Z,272.00
2022-10-04T09:35:06.467Z,235.13
2022-10-04T09:37:36.465Z,233.30
2022-10-04T09:40:27.465Z,254.03
2022-10-04T09:43:27.472Z,269.92
2022-10-04T09:46:22.072Z,272.98
2022-10-04T09:49:17.900Z,268.88
2022-10-04T09:51:56.525Z,264.93
2022-10-04T09:54:51.661Z,269.17
2022-10-04T09:57:29.726Z,268.52
2022-10-04T10:00:11.404Z,244.02
2022-10-04T10:03:13.412Z,243.60
2022-10-04T10:06:08.169Z,276.75
2022-10-04T10:08:49.698Z,280.50
2022-10-04T10:11:56.638Z,255.73
2022-10-04T10:15:08.270Z,238.80
2022-10-04T10:18:00.892Z,238.52
2022-10-04T10:20:28.492Z,252.68
2022-10-04T10:23:01.198Z,241.55
2022-10-04T10:25:56.244Z,248.38
2022-10-04T10:28:40.612Z,247.60
2022-10-04T10:31:51.245Z,235.23
2022-10-04T10:34:35.821Z,223.77
2022-10-04T10:37:40.985Z,248.32
2022-10-04T10:40:16.907Z,230.77
2022-10-04T10:42:59.800Z,240.32
2022-10-04T10:45:43.813Z,242.23
2022-10-04T10:48:35.331Z,226.68
2022-10-04T10:51:34.420Z,235.45
2022-10-04T10:54:34.255Z,246.32
2022-10-04T10:57:18.649Z,246.07
2022-10-04T10:59:57.219Z,237.60
2022-10-04T11:02:48.766Z,229.88
2022-10-04T11:05:37.226Z,218.27
2022-10-04T11:08:37.549Z,207.00
2022-10-04T11:11:39.449Z,236.38
2022-10-04T11:14:14.756Z,228.68
2022-10-04T11:16:47.857Z,224.13
2022-10-04T11:19:46.495Z,224.38
2022-10-04T11:22:42.357Z,233.57
2022-10-04T11:25:46.873Z,221.52
2022-10-04T11:28:27.904Z,213.70
2022-10-04T11:31:19.532Z,200.13
2022-10-04T11:34:02.508Z,200.50
2022-10-04T11:36:53.971Z,195.13
2022-10-04T11:40:02.142Z,181.27
2022-10-04T11:43:06.178Z,185.88
2022-10-04T11:45:42.948Z,223.25
2022-10-04T11:48:27.880Z,243.23
2022-10-04T11:51:10.322Z,234.30
2022-10-04T11:54:07.485Z,213.23
2022-10-04T11:56:49.169Z,224.88
2022-10-04T11:59:32.941Z,232.68
2022-10-04T12:02:17.552Z,219.35
2022-10-04T12:05:18.604Z,248.80
2022-10-04T12:07:54.463Z,224.73
2022-10-04T12:10:29.771Z,216.80
2022-10-04T12:13:19.955Z,238.23
2022-10-04T12:16:01.253Z,213.77
2022-10-04T12:18:34.409Z,215.68
2022-10-04T12:21:19.884Z,209.82
2022-10-04T12:24:09.088Z,192.98
2022-10-04T12:26:38.572Z,194.68
2022-10-04T12:29:24.201Z,193.38
2022-10-04T12:32:00.056Z,179.63
2022-10-04T12:34:40.281Z,189.13
2022-10-04T12:37:19.341Z,199.00
2022-10-04T12:40:14.435Z,200.30
2022-10-04T12:42:59.660Z,189.98
2022-10-04T12:45:52.766Z,195.63
2022-10-04T12:48:43.593Z,218.65
2022-10-04T12:51:22.830Z,173.75
2022-10-04T12:54:01.275Z,156.87
2022-10-04T12:56:45.687Z,172.10
2022-10-04T12:59:25.670Z,173.25
2022-10-04T13:02:21.721Z,169.65
2022-10-04T13:04:59.338Z,169.88
2022-10-04T13:07:36.039Z,216.75
2022-10-04T13:10:44.319Z,205.68
2022-10-04T13:13:44.753Z,205.75
2022-10-04T13:19:27.279Z,184.60
2022-10-04T13:22:00.085Z,188.15
2022-10-04T13:24:58.052Z,168.02
2022-10-04T13:27:49.171Z,187.65
2022-10-04T13:30:23.501Z,171.13
2022-10-04T13:33:26.483Z,153.32
2022-10-04T13:36:05.329Z,157.90
2022-10-04T13:38:55.305Z,177.32
2022-10-04T13:41:52.516Z,159.98
2022-10-04T13:44:30.494Z,141.60
2022-10-04T13:47:34.285Z,137.27
2022-10-04T13:50:22.245Z,162.17
2022-10-04T13:53:15.478Z,156.32
2022-10-04T13:56:04.735Z,180.63
2022-10-04T13:58:52.660Z,170.00
2022-10-04T14:01:37.826Z,157.85
2022-10-04T14:04:25.693Z,147.20
2022-10-04T14:07:23.314Z,155.30
2022-10-04T14:10:19.975Z,150.00
2022-10-04T14:12:49.243Z,153.57
2022-10-04T14:15:50.585Z,128.48
2022-10-04T14:18:46.448Z,115.75
2022-10-04T14:21:26.439Z,124.63
2022-10-04T14:24:32.739Z,126.47
2022-10-04T14:27:05.188Z,129.37
2022-10-04T14:30:00.783Z,129.45
2022-10-04T14:32:45.888Z,145.95
2022-10-04T14:35:29.008Z,130.80
2022-10-04T14:38:23.186Z,141.55
2022-10-04T14:41:35.220Z,153.57
2022-10-04T14:44:31.416Z,150.07
2022-10-04T14:47:36.771Z,163.10
2022-10-04T14:50:26.769Z,159.88
2022-10-04T14:53:02.470Z,170.13
2022-10-04T14:55:49.110Z,164.17
2022-10-04T14:58:32.341Z,173.15
2022-10-04T15:01:01.629Z,174.60
2022-10-04T15:03:38.973Z,169.88
2022-10-04T15:06:12.238Z,187.50
2022-10-04T15:09:16.102Z,184.77
2022-10-04T15:12:21.491Z,186.85
2022-10-04T15:14:59.428Z,203.20
2022-10-04T15:17:29.597Z,204.80
2022-10-04T15:20:06.385Z,216.45
2022-10-04T15:22:46.746Z,232.27
2022-10-04T15:25:40.545Z,230.43
2022-10-04T15:28:44.784Z,229.18
2022-10-04T15:31:17.240Z,238.53
2022-10-04T15:34:14.863Z,224.38
2022-10-04T15:37:03.836Z,219.60
2022-10-04T15:39:58.826Z,221.52
2022-10-04T15:42:37.293Z,222.85
2022-10-04T15:45:17.135Z,220.27
2022-10-04T15:48:14.647Z,219.57
2022-10-04T15:51:08.267Z,224.82
2022-10-04T15:54:08.627Z,225.55
2022-10-04T15:56:41.192Z,220.83
2022-10-04T15:59:36.469Z,207.45
2022-10-04T16:02:36.624Z,231.95
2022-10-04T16:05:15.276Z,239.30
2022-10-04T16:08:09.429Z,226.65
2022-10-04T16:11:14.739Z,233.55
2022-10-04T16:14:20.034Z,233.37
2022-10-04T16:16:59.460Z,241.35
2022-10-04T16:19:53.184Z,255.13
2022-10-04T16:22:38.376Z,241.80
2022-10-04T16:25:23.640Z,278.77
2022-10-04T16:27:56.171Z,277.95
2022-10-04T16:30:45.912Z,307.15
2022-10-04T16:33:32.334Z,290.95
2022-10-04T16:36:18.239Z,283.58
2022-10-04T16:39:22.979Z,287.92
2022-10-04T16:42:01.295Z,308.80
2022-10-04T16:44:50.589Z,295.75
2022-10-04T16:47:33.399Z,288.13
2022-10-04T16:50:04.751Z,280.08
2022-10-04T16:53:02.533Z,279.42
2022-10-04T16:55:53.697Z,286.75
2022-10-04T16:58:26.156Z,285.80
2022-10-04T17:01:26.117Z,276.33
2022-10-04T17:04:05.052Z,284.42
2022-10-04T17:06:33.077Z,279.65
2022-10-04T17:09:02.404Z,281.05
2022-10-04T17:11:44.797Z,287.93
2022-10-04T17:14:49.162Z,290.13
2022-10-04T17:17:42.597Z,302.50
2022-10-04T17:20:26.713Z,295.20
2022-10-04T17:23:24.012Z,287.85
2022-10-04T17:26:08.889Z,291.42
2022-10-04T17:28:53.054Z,290.60
2022-10-04T17:31:38.363Z,297.30
2022-10-04T17:34:10.619Z,282.88
2022-10-04T17:36:47.955Z,279.40
2022-10-04T17:39:23.328Z,282.98
2022-10-04T17:42:10.504Z,286.15
2022-10-04T17:45:11.688Z,277.08
2022-10-04T17:47:59.894Z,280.63
2022-10-04T17:51:11.736Z,281.05
2022-10-04T17:54:00.832Z,270.65
2022-10-04T17:57:12.126Z,286.48
2022-10-04T17:59:44.023Z,292.33
2022-10-04T18:02:20.230Z,272.63
2022-10-04T18:05:17.794Z,273.20
2022-10-04T18:07:52.815Z,279.05
2022-10-04T18:10:40.959Z,282.58
2022-10-04T18:13:19.633Z,286.47
2022-10-04T18:15:59.760Z,285.13
2022-10-04T18:18:37.176Z,292.70
2022-10-04T18:21:27.409Z,295.48
2022-10-04T18:24:17.281Z,293.27
2022-10-04T18:27:16.630Z,292.43
2022-10-04T18:29:58.221Z,291.38
2022-10-04T18:32:30.668Z,291.30
2022-10-04T18:35:27.589Z,280.63
2022-10-04T18:38:09.188Z,275.92
2022-10-04T18:40:43.128Z,259.80
2022-10-04T18:43:34.807Z,255.85
2022-10-04T18:46:16.063Z,273.90
2022-10-04T18:48:56.372Z,274.48
2022-10-04T18:51:30.759Z,293.95
2022-10-04T18:54:29.333Z,296.67
2022-10-04T18:57:23.316Z,296.05
2022-10-04T19:00:20.342Z,319.97
2022-10-04T19:02:57.725Z,306.08
2022-10-04T19:05:40.272Z,308.05
2022-10-04T19:08:35.871Z,308.67
2022-10-04T19:11:16.035Z,315.58
2022-10-04T19:14:14.483Z,332.40
2022-10-04T19:16:58.780Z,328.50
2022-10-04T19:19:53.986Z,317.20
2022-10-04T19:22:42.009Z,308.90
2022-10-04T19:25:27.348Z,314.35
2022-10-04T19:28:11.139Z,312.02
2022-10-04T19:31:05.152Z,298.70
2022-10-04T19:33:41.106Z,317.73
2022-10-04T19:36:25.133Z,315.47
2022-10-04T19:39:31.055Z,308.40
2022-10-04T19:42:01.793Z,317.40
2022-10-04T19:45:08.329Z,312.65
2022-10-04T19:47:53.046Z,320.30
2022-10-04T19:50:28.055Z,306.17
2022-10-04T19:53:07.373Z,297.80
2022-10-04T19:55:51.437Z,294.75
2022-10-04T19:58:40.888Z,287.10
2022-10-04T20:01:23.168Z,286.00
2022-10-04T20:04:11.614Z,287.20
2022-10-04T20:06:40.726Z,280.73
2022-10-04T20:09:41.246Z,288.33
2022-10-04T20:12:31.712Z,280.88
2022-10-04T20:15:16.736Z,286.95
2022-10-04T20:17:45.647Z,277.93
2022-10-04T20:20:38.471Z,273.50
2022-10-04T20:23:07.578Z,265.83
2022-10-04T20:25:43.290Z,278.17
2022-10-04T20:28:11.031Z,271.02
2022-10-04T20:31:01.005Z,254.93
2022-10-04T20:33:37.184Z,264.80
2022-10-04T20:36:32.537Z,250.45
2022-10-04T20:39:03.620Z,250.15
2022-10-04T20:41:30.245Z,264.42
2022-10-04T20:44:01.228Z,260.25
2022-10-04T20:46:38.783Z,253.60
2022-10-04T20:49:15.747Z,256.17
2022-10-04T20:51:49.740Z,253.97
2022-10-04T20:54:20.919Z,268.48
2022-10-04T20:56:49.308Z,262.42
2022-10-04T20:59:17.788Z,261.40
2022-10-04T21:02:01.197Z,269.48
2022-10-04T21:04:49.934Z,281.35
2022-10-04T21:07:21.639Z,269.27
2022-10-04T21:09:48.823Z,262.58
2022-10-04T21:12:31.881Z,250.50
2022-10-04T21:15:25.008Z,269.73
2022-10-04T21:18:10.963Z,282.13
2022-10-04T21:20:52.034Z,273.08
2022-10-04T21:23:36.764Z,269.90
2022-10-04T21:26:56.980Z,266.25
2022-10-04T21:29:24.464Z,280.17
2022-10-04T21:31:51.116Z,278.03
2022-10-04T21:34:34.793Z,284.13
2022-10-04T21:37:04.307Z,287.83
2022-10-04T21:39:38.465Z,296.35
2022-10-04T21:42:05.531Z,302.77
2022-10-04T21:44:32.069Z,310.20
2022-10-04T21:46:58.693Z,308.13
2022-10-04T21:49:25.307Z,327.65
2022-10-04T21:51:51.835Z,322.27
2022-10-04T21:54:18.454Z,326.48
2022-10-04T21:56:45.423Z,329.15
2022-10-04T21:59:12.370Z,323.73
2022-10-04T22:01:38.907Z,315.63
2022-10-04T22:04:05.490Z,316.98
2022-10-04T22:06:32.077Z,307.37
2022-10-04T22:08:58.610Z,316.63
2022-10-04T22:11:25.391Z,304.67
2022-10-04T22:13:52.009Z,318.27
2022-10-04T22:16:18.605Z,340.30
2022-10-04T22:18:45.245Z,329.00
2022-10-04T22:21:11.790Z,338.95
2022-10-04T22:23:40.992Z,337.60
2022-10-04T22:26:19.927Z,319.27
2022-10-04T22:28:49.509Z,305.23
2022-10-04T22:31:18.765Z,312.77
2022-10-04T22:33:47.482Z,299.48
2022-10-04T22:36:39.559Z,315.23
2022-10-04T22:39:09.062Z,308.92
2022-10-04T22:41:47.237Z,310.73
2022-10-04T22:44:37.450Z,307.13
2022-10-04T22:47:10.201Z,306.45
2022-10-04T22:49:40.122Z,305.52
2022-10-04T22:52:14.963Z,309.02
2022-10-04T22:54:45.135Z,307.27
2022-10-04T22:57:14.300Z,305.75
2022-10-04T22:59:44.406Z,305.98
2022-10-04T23:02:17.438Z,316.70
2022-10-04T23:04:52.327Z,311.13
2022-10-04T23:07:19.927Z,303.77
2022-10-04T23:09:46.934Z,303.73
2022-10-04T23:12:14.091Z,309.08
2022-10-04T23:14:40.982Z,312.50
2022-10-04T23:17:22.787Z,310.42
2022-10-04T23:19:56.520Z,324.65
2022-10-04T23:22:27.711Z,320.65
2022-10-04T23:24:55.746Z,315.27
2022-10-04T23:27:23.442Z,311.35
2022-10-04T23:30:02.901Z,316.52
2022-10-04T23:32:31.321Z,319.45
2022-10-04T23:34:59.013Z,307.92
2022-10-04T23:37:29.280Z,303.55
2022-10-04T23:39:55.965Z,309.92
2022-10-04T23:42:32.267Z,305.70
2022-10-04T23:45:00.066Z,317.05
2022-10-04T23:47:34.711Z,310.73
2022-10-04T23:50:02.023Z,314.40
2022-10-04T23:52:37.137Z,311.30
2022-10-04T23:55:21.361Z,339.08
2022-10-04T23:57:48.709Z,324.00
